Sea Voyager — V7QU2 — position and weather

sailwx.info

Track history (hours):
 
Tides and Currents Weather Stations Pressure Air Temp Water Temp Dewpoint Dewpoint Depression Visibility Wind Speed Wind Dir Waves Ship Positions

Sea Voyager

Last reported at 2016-Feb-07 03:33 UTC. Time now 2016-Feb-12 05:45 UTC.
Position N 01°15' E 104°03'.

Length 243 m; draft 10.4 m.

Type: Ship (hazmat cat A). MMSI: 538003439.

Date/timePositionNaut miles runAvg speedWind from/ knotsBaromVisibWave heightAir tempDewpointWater temp
2016-Feb-07 03:33N 01°15' E 104°03'1212.2
2016-Feb-07 02:33N 01°11' E 103°52'9010.7
2016-Feb-06 18:10N 01°47' E 102°29'711.7
2016-Feb-06 17:33N 01°50' E 102°22'  
2016-Feb-01 12:21N 01°11' E 103°38'911.8
2016-Feb-01 11:33N 01°10' E 103°47'8 8.4
2016-Feb-01 10:33N 01°15' E 103°54'0 0.1
2016-Feb-01 09:33N 01°15' E 103°54'0 0.1
2016-Feb-01 08:33N 01°15' E 103°54'0 0.0
2016-Feb-01 07:33N 01°15' E 103°54'0 0.0
2016-Feb-01 06:31N 01°15' E 103°54'0 0.0
2016-Feb-01 05:33N 01°15' E 103°54'0 0.0
2016-Feb-01 04:32N 01°15' E 103°54'0 0.0
2016-Feb-01 03:33N 01°15' E 103°54'0 0.1
2016-Feb-01 02:33N 01°15' E 103°54'0 0.0
2016-Feb-01 01:33N 01°15' E 103°54'0 0.1
2016-Feb-01 00:31N 01°15' E 103°54'0 0.0
2016-Jan-31 23:30N 01°15' E 103°54'0 0.0
2016-Jan-31 22:33N 01°15' E 103°54'0 0.0
2016-Jan-31 21:33N 01°15' E 103°54'0 0.0
2016-Jan-31 20:33N 01°15' E 103°54'0 0.0
2016-Jan-31 19:33N 01°15' E 103°54'0 0.0
2016-Jan-31 18:33N 01°15' E 103°54'3 2.5
2016-Jan-31 17:33N 01°13' E 103°53'8 7.6
2016-Jan-31 16:33N 01°15' E 103°45'0 0.3
2016-Jan-31 15:27N 01°14' E 103°45'0 0.0
2016-Jan-31 14:33N 01°14' E 103°45'0 0.0
2016-Jan-31 13:33N 01°14' E 103°45'0 0.0
2016-Jan-31 12:33N 01°14' E 103°45'0 0.0
2016-Jan-31 11:27N 01°14' E 103°45'0 0.0
2016-Jan-31 10:33N 01°14' E 103°45'0 0.0
2016-Jan-31 09:33N 01°14' E 103°45'0 0.0
2016-Jan-31 08:12N 01°14' E 103°45'0 0.0
2016-Jan-31 07:27N 01°14' E 103°45'0 0.0
2016-Jan-31 06:27N 01°14' E 103°45'0 0.0
2016-Jan-31 05:33N 01°14' E 103°45'0 0.0
2016-Jan-31 04:24N 01°14' E 103°45'0 0.0
2016-Jan-31 03:30N 01°14' E 103°45'0 0.0
2016-Jan-31 02:33N 01°14' E 103°45'0 0.0
2016-Jan-31 01:33N 01°14' E 103°45'0 0.0
2016-Jan-31 00:33N 01°14' E 103°45'0 0.0
2016-Jan-30 23:30N 01°14' E 103°45'0 0.0
2016-Jan-30 22:30N 01°14' E 103°45'0 0.0
2016-Jan-30 21:24N 01°14' E 103°45'0 0.0
2016-Jan-30 20:33N 01°14' E 103°45'0 0.0
2016-Jan-30 19:33N 01°14' E 103°45'0 0.0
2016-Jan-30 18:33N 01°14' E 103°45'0 0.0
2016-Jan-30 17:33N 01°14' E 103°45'0 0.0
2016-Jan-30 16:12N 01°14' E 103°45'0 0.0
2016-Jan-30 15:15N 01°14' E 103°45'0 0.0
2016-Jan-30 14:33N 01°14' E 103°45'0 0.0
2016-Jan-30 13:33N 01°14' E 103°45'0 0.0
2016-Jan-30 12:33N 01°14' E 103°45'0 0.0
2016-Jan-30 09:27N 01°14' E 103°45'0 0.0
2016-Jan-30 08:33N 01°14' E 103°45'0 0.0
2016-Jan-30 07:33N 01°14' E 103°45'0 0.0
2016-Jan-30 06:33N 01°14' E 103°45'0 0.0
2016-Jan-30 05:33N 01°14' E 103°45'0 0.0
2016-Jan-30 04:24N 01°14' E 103°45'0 0.0
2016-Jan-30 03:21N 01°14' E 103°45'0 0.0
2016-Jan-30 00:30N 01°14' E 103°45'0 0.0
2016-Jan-29 23:33N 01°14' E 103°45'0 0.0
2016-Jan-29 22:33N 01°14' E 103°45'0 0.0
2016-Jan-29 21:30N 01°14' E 103°45'0 0.0
2016-Jan-29 20:21N 01°14' E 103°45'0 0.0
2016-Jan-29 19:27N 01°14' E 103°45'0 0.0
2016-Jan-29 18:24N 01°14' E 103°45'0 0.0
2016-Jan-29 17:30N 01°14' E 103°45'0 0.0
2016-Jan-29 15:30N 01°14' E 103°45'0 0.0
2016-Jan-29 14:33N 01°14' E 103°45'0 0.0
2016-Jan-29 13:24N 01°14' E 103°45'0 0.0
2016-Jan-29 12:31N 01°14' E 103°45'0 0.3
2016-Jan-29 11:33N 01°15' E 103°45'5 5.1
2016-Jan-29 10:34N 01°12' E 103°41'3 2.3
2016-Jan-29 09:23N 01°10' E 103°43'0 0.1
2016-Jan-29 08:26N 01°10' E 103°43'0 0.0
2016-Jan-28 08:08N 01°10' E 103°43'  
Track history (hours):
 
Tides and Currents Weather Stations Pressure Air Temp Water Temp Dewpoint Dewpoint Depression Visibility Wind Speed Wind Dir Waves Ship Positions

Sea Voyager

Last reported at 2016-Feb-07 03:33 UTC. Time now 2016-Feb-12 05:45 UTC.
Position N 01°15' E 104°03'.

Length 243 m; draft 10.4 m.

Type: Ship (hazmat cat A). MMSI: 538003439.

Date/timePositionNaut miles runAvg speedWind from/ knotsBaromVisibWave heightAir tempDewpointWater temp
2016-Feb-07 03:33N 01°15' E 104°03'1212.2
2016-Feb-07 02:33N 01°11' E 103°52'9010.7
2016-Feb-06 18:10N 01°47' E 102°29'711.7
2016-Feb-06 17:33N 01°50' E 102°22'  
2016-Feb-01 12:21N 01°11' E 103°38'911.8
2016-Feb-01 11:33N 01°10' E 103°47'8 8.4
2016-Feb-01 10:33N 01°15' E 103°54'0 0.1
2016-Feb-01 09:33N 01°15' E 103°54'0 0.1
2016-Feb-01 08:33N 01°15' E 103°54'0 0.0
2016-Feb-01 07:33N 01°15' E 103°54'0 0.0
2016-Feb-01 06:31N 01°15' E 103°54'0 0.0
2016-Feb-01 05:33N 01°15' E 103°54'0 0.0
2016-Feb-01 04:32N 01°15' E 103°54'0 0.0
2016-Feb-01 03:33N 01°15' E 103°54'0 0.1
2016-Feb-01 02:33N 01°15' E 103°54'0 0.0
2016-Feb-01 01:33N 01°15' E 103°54'0 0.1
2016-Feb-01 00:31N 01°15' E 103°54'0 0.0
2016-Jan-31 23:30N 01°15' E 103°54'0 0.0
2016-Jan-31 22:33N 01°15' E 103°54'0 0.0
2016-Jan-31 21:33N 01°15' E 103°54'0 0.0
2016-Jan-31 20:33N 01°15' E 103°54'0 0.0
2016-Jan-31 19:33N 01°15' E 103°54'0 0.0
2016-Jan-31 18:33N 01°15' E 103°54'3 2.5
2016-Jan-31 17:33N 01°13' E 103°53'8 7.6
2016-Jan-31 16:33N 01°15' E 103°45'0 0.3
2016-Jan-31 15:27N 01°14' E 103°45'0 0.0
2016-Jan-31 14:33N 01°14' E 103°45'0 0.0
2016-Jan-31 13:33N 01°14' E 103°45'0 0.0
2016-Jan-31 12:33N 01°14' E 103°45'0 0.0
2016-Jan-31 11:27N 01°14' E 103°45'0 0.0
2016-Jan-31 10:33N 01°14' E 103°45'0 0.0
2016-Jan-31 09:33N 01°14' E 103°45'0 0.0
2016-Jan-31 08:12N 01°14' E 103°45'0 0.0
2016-Jan-31 07:27N 01°14' E 103°45'0 0.0
2016-Jan-31 06:27N 01°14' E 103°45'0 0.0
2016-Jan-31 05:33N 01°14' E 103°45'0 0.0
2016-Jan-31 04:24N 01°14' E 103°45'0 0.0
2016-Jan-31 03:30N 01°14' E 103°45'0 0.0
2016-Jan-31 02:33N 01°14' E 103°45'0 0.0
2016-Jan-31 01:33N 01°14' E 103°45'0 0.0
2016-Jan-31 00:33N 01°14' E 103°45'0 0.0
2016-Jan-30 23:30N 01°14' E 103°45'0 0.0
2016-Jan-30 22:30N 01°14' E 103°45'0 0.0
2016-Jan-30 21:24N 01°14' E 103°45'0 0.0
2016-Jan-30 20:33N 01°14' E 103°45'0 0.0
2016-Jan-30 19:33N 01°14' E 103°45'0 0.0
2016-Jan-30 18:33N 01°14' E 103°45'0 0.0
2016-Jan-30 17:33N 01°14' E 103°45'0 0.0
2016-Jan-30 16:12N 01°14' E 103°45'0 0.0
2016-Jan-30 15:15N 01°14' E 103°45'0 0.0
2016-Jan-30 14:33N 01°14' E 103°45'0 0.0
2016-Jan-30 13:33N 01°14' E 103°45'0 0.0
2016-Jan-30 12:33N 01°14' E 103°45'0 0.0
2016-Jan-30 09:27N 01°14' E 103°45'0 0.0
2016-Jan-30 08:33N 01°14' E 103°45'0 0.0
2016-Jan-30 07:33N 01°14' E 103°45'0 0.0
2016-Jan-30 06:33N 01°14' E 103°45'0 0.0
2016-Jan-30 05:33N 01°14' E 103°45'0 0.0
2016-Jan-30 04:24N 01°14' E 103°45'0 0.0
2016-Jan-30 03:21N 01°14' E 103°45'0 0.0
2016-Jan-30 00:30N 01°14' E 103°45'0 0.0
2016-Jan-29 23:33N 01°14' E 103°45'0 0.0
2016-Jan-29 22:33N 01°14' E 103°45'0 0.0
2016-Jan-29 21:30N 01°14' E 103°45'0 0.0
2016-Jan-29 20:21N 01°14' E 103°45'0 0.0
2016-Jan-29 19:27N 01°14' E 103°45'0 0.0
2016-Jan-29 18:24N 01°14' E 103°45'0 0.0
2016-Jan-29 17:30N 01°14' E 103°45'0 0.0
2016-Jan-29 15:30N 01°14' E 103°45'0 0.0
2016-Jan-29 14:33N 01°14' E 103°45'0 0.0
2016-Jan-29 13:24N 01°14' E 103°45'0 0.0
2016-Jan-29 12:31N 01°14' E 103°45'0 0.3
2016-Jan-29 11:33N 01°15' E 103°45'5 5.1
2016-Jan-29 10:34N 01°12' E 103°41'3 2.3
2016-Jan-29 09:23N 01°10' E 103°43'0 0.1
2016-Jan-29 08:26N 01°10' E 103°43'0 0.0
2016-Jan-28 08:08N 01°10' E 103°43'  

Dump ship's entire track history